sensor_id;sensor_type;location;lat;lon;timestamp;P1;durP1;ratioP1;P2;durP2;ratioP2
24517;SDS011;12678;51.336;12.406;2023-04-06T00:00:48;9.73;;;4.28;;
24517;SDS011;12678;51.336;12.406;2023-04-06T00:03:14;9.77;;;4.40;;
24517;SDS011;12678;51.336;12.406;2023-04-06T00:05:40;7.97;;;4.63;;
24517;SDS011;12678;51.336;12.406;2023-04-06T00:08:06;15.55;;;5.07;;
24517;SDS011;12678;51.336;12.406;2023-04-06T00:10:35;8.93;;;4.85;;
24517;SDS011;12678;51.336;12.406;2023-04-06T00:13:00;7.10;;;4.05;;
24517;SDS011;12678;51.336;12.406;2023-04-06T00:15:26;13.05;;;4.53;;
24517;SDS011;12678;51.336;12.406;2023-04-06T00:17:52;10.73;;;4.80;;
24517;SDS011;12678;51.336;12.406;2023-04-06T00:20:18;11.80;;;4.30;;
24517;SDS011;12678;51.336;12.406;2023-04-06T00:22:44;11.55;;;5.20;;
24517;SDS011;12678;51.336;12.406;2023-04-06T00:25:11;9.27;;;4.40;;
24517;SDS011;12678;51.336;12.406;2023-04-06T00:27:37;9.38;;;4.45;;
24517;SDS011;12678;51.336;12.406;2023-04-06T00:30:03;11.15;;;4.82;;
24517;SDS011;12678;51.336;12.406;2023-04-06T00:32:30;7.50;;;4.18;;
24517;SDS011;12678;51.336;12.406;2023-04-06T00:34:58;11.27;;;4.45;;
24517;SDS011;12678;51.336;12.406;2023-04-06T00:37:23;7.82;;;4.57;;
24517;SDS011;12678;51.336;12.406;2023-04-06T00:39:49;8.73;;;4.07;;
24517;SDS011;12678;51.336;12.406;2023-04-06T00:42:17;8.27;;;4.25;;
24517;SDS011;12678;51.336;12.406;2023-04-06T00:44:51;9.02;;;3.97;;
24517;SDS011;12678;51.336;12.406;2023-04-06T00:47:21;8.00;;;3.85;;
24517;SDS011;12678;51.336;12.406;2023-04-06T00:49:48;8.55;;;4.30;;
24517;SDS011;12678;51.336;12.406;2023-04-06T00:52:14;7.32;;;4.28;;
24517;SDS011;12678;51.336;12.406;2023-04-06T00:54:40;7.65;;;3.22;;
24517;SDS011;12678;51.336;12.406;2023-04-06T00:57:06;8.57;;;4.57;;
24517;SDS011;12678;51.336;12.406;2023-04-06T00:59:35;6.25;;;3.53;;
24517;SDS011;12678;51.336;12.406;2023-04-06T01:02:00;6.93;;;3.53;;
24517;SDS011;12678;51.336;12.406;2023-04-06T01:04:26;7.85;;;3.67;;
24517;SDS011;12678;51.336;12.406;2023-04-06T01:06:52;6.32;;;3.63;;
24517;SDS011;12678;51.336;12.406;2023-04-06T01:09:18;9.35;;;5.05;;
24517;SDS011;12678;51.336;12.406;2023-04-06T01:11:44;6.35;;;3.58;;
24517;SDS011;12678;51.336;12.406;2023-04-06T01:14:09;7.70;;;4.15;;
24517;SDS011;12678;51.336;12.406;2023-04-06T01:16:35;7.30;;;4.03;;
24517;SDS011;12678;51.336;12.406;2023-04-06T01:19:07;8.23;;;3.67;;
24517;SDS011;12678;51.336;12.406;2023-04-06T01:21:34;7.53;;;3.92;;
24517;SDS011;12678;51.336;12.406;2023-04-06T01:24:00;9.93;;;3.95;;
24517;SDS011;12678;51.336;12.406;2023-04-06T01:26:26;11.75;;;4.70;;
24517;SDS011;12678;51.336;12.406;2023-04-06T01:28:54;6.60;;;3.92;;
24517;SDS011;12678;51.336;12.406;2023-04-06T01:31:20;8.00;;;3.78;;
24517;SDS011;12678;51.336;12.406;2023-04-06T01:33:46;9.43;;;4.22;;
24517;SDS011;12678;51.336;12.406;2023-04-06T01:36:12;8.07;;;4.10;;
24517;SDS011;12678;51.336;12.406;2023-04-06T01:38:37;8.15;;;3.90;;
24517;SDS011;12678;51.336;12.406;2023-04-06T01:41:03;11.13;;;4.15;;
24517;SDS011;12678;51.336;12.406;2023-04-06T01:43:30;5.55;;;3.67;;
24517;SDS011;12678;51.336;12.406;2023-04-06T01:45:55;8.43;;;4.00;;
24517;SDS011;12678;51.336;12.406;2023-04-06T01:48:21;7.07;;;3.83;;
24517;SDS011;12678;51.336;12.406;2023-04-06T01:50:47;9.10;;;4.68;;
24517;SDS011;12678;51.336;12.406;2023-04-06T01:53:12;5.45;;;3.50;;
24517;SDS011;12678;51.336;12.406;2023-04-06T01:55:39;9.23;;;3.83;;
24517;SDS011;12678;51.336;12.406;2023-04-06T01:58:04;6.65;;;3.95;;
24517;SDS011;12678;51.336;12.406;2023-04-06T02:00:30;6.63;;;3.30;;
24517;SDS011;12678;51.336;12.406;2023-04-06T02:02:56;7.65;;;3.90;;
24517;SDS011;12678;51.336;12.406;2023-04-06T02:05:22;10.20;;;4.63;;
24517;SDS011;12678;51.336;12.406;2023-04-06T02:07:47;6.18;;;3.47;;
24517;SDS011;12678;51.336;12.406;2023-04-06T02:10:14;8.10;;;3.97;;
24517;SDS011;12678;51.336;12.406;2023-04-06T02:12:40;6.07;;;3.88;;
24517;SDS011;12678;51.336;12.406;2023-04-06T02:15:06;11.02;;;4.30;;
24517;SDS011;12678;51.336;12.406;2023-04-06T02:17:32;8.00;;;3.95;;
24517;SDS011;12678;51.336;12.406;2023-04-06T02:19:58;11.50;;;4.95;;
24517;SDS011;12678;51.336;12.406;2023-04-06T02:22:23;7.97;;;4.30;;
24517;SDS011;12678;51.336;12.406;2023-04-06T02:24:49;7.45;;;3.90;;
24517;SDS011;12678;51.336;12.406;2023-04-06T02:27:15;6.97;;;4.03;;
24517;SDS011;12678;51.336;12.406;2023-04-06T02:29:40;5.72;;;3.85;;
24517;SDS011;12678;51.336;12.406;2023-04-06T02:32:06;8.93;;;4.60;;
24517;SDS011;12678;51.336;12.406;2023-04-06T02:34:32;9.00;;;4.60;;
24517;SDS011;12678;51.336;12.406;2023-04-06T02:36:58;10.88;;;4.75;;
24517;SDS011;12678;51.336;12.406;2023-04-06T02:39:24;11.93;;;4.93;;
24517;SDS011;12678;51.336;12.406;2023-04-06T02:41:49;9.57;;;4.40;;
24517;SDS011;12678;51.336;12.406;2023-04-06T02:44:15;11.98;;;4.90;;
24517;SDS011;12678;51.336;12.406;2023-04-06T02:46:41;9.38;;;4.38;;
24517;SDS011;12678;51.336;12.406;2023-04-06T02:49:06;9.18;;;4.68;;
24517;SDS011;12678;51.336;12.406;2023-04-06T02:51:32;9.10;;;4.20;;
24517;SDS011;12678;51.336;12.406;2023-04-06T02:53:58;9.88;;;4.05;;
24517;SDS011;12678;51.336;12.406;2023-04-06T02:56:24;8.88;;;4.50;;
24517;SDS011;12678;51.336;12.406;2023-04-06T02:58:50;11.20;;;4.60;;
24517;SDS011;12678;51.336;12.406;2023-04-06T03:01:15;7.68;;;4.32;;
24517;SDS011;12678;51.336;12.406;2023-04-06T03:03:41;6.32;;;4.07;;
24517;SDS011;12678;51.336;12.406;2023-04-06T03:06:07;9.93;;;4.25;;
24517;SDS011;12678;51.336;12.406;2023-04-06T03:08:33;13.82;;;7.20;;
24517;SDS011;12678;51.336;12.406;2023-04-06T03:10:59;22.42;;;11.43;;
24517;SDS011;12678;51.336;12.406;2023-04-06T03:13:25;21.35;;;10.52;;
24517;SDS011;12678;51.336;12.406;2023-04-06T03:15:50;18.80;;;9.73;;
24517;SDS011;12678;51.336;12.406;2023-04-06T03:18:20;19.42;;;8.43;;
24517;SDS011;12678;51.336;12.406;2023-04-06T03:20:47;13.77;;;7.72;;
24517;SDS011;12678;51.336;12.406;2023-04-06T03:23:13;13.07;;;5.95;;
24517;SDS011;12678;51.336;12.406;2023-04-06T03:25:39;9.27;;;5.70;;
24517;SDS011;12678;51.336;12.406;2023-04-06T03:28:05;16.10;;;5.43;;
24517;SDS011;12678;51.336;12.406;2023-04-06T03:30:31;8.25;;;5.45;;
24517;SDS011;12678;51.336;12.406;2023-04-06T03:32:57;6.22;;;4.13;;
24517;SDS011;12678;51.336;12.406;2023-04-06T03:35:23;11.38;;;5.57;;
24517;SDS011;12678;51.336;12.406;2023-04-06T03:37:50;7.68;;;4.68;;
24517;SDS011;12678;51.336;12.406;2023-04-06T03:40:15;11.00;;;3.95;;
24517;SDS011;12678;51.336;12.406;2023-04-06T03:42:41;8.52;;;5.25;;
24517;SDS011;12678;51.336;12.406;2023-04-06T03:45:07;7.60;;;4.10;;
24517;SDS011;12678;51.336;12.406;2023-04-06T03:47:33;8.18;;;4.75;;
24517;SDS011;12678;51.336;12.406;2023-04-06T03:49:59;13.20;;;5.00;;
24517;SDS011;12678;51.336;12.406;2023-04-06T03:52:25;9.45;;;5.47;;
24517;SDS011;12678;51.336;12.406;2023-04-06T03:54:51;9.57;;;5.88;;
24517;SDS011;12678;51.336;12.406;2023-04-06T03:57:16;18.27;;;5.03;;
24517;SDS011;12678;51.336;12.406;2023-04-06T03:59:42;11.13;;;5.45;;
24517;SDS011;12678;51.336;12.406;2023-04-06T04:02:08;14.02;;;5.78;;
24517;SDS011;12678;51.336;12.406;2023-04-06T04:04:33;10.85;;;6.00;;
24517;SDS011;12678;51.336;12.406;2023-04-06T04:06:59;16.33;;;8.27;;
24517;SDS011;12678;51.336;12.406;2023-04-06T04:09:25;9.73;;;5.00;;
24517;SDS011;12678;51.336;12.406;2023-04-06T04:11:50;9.95;;;5.38;;
24517;SDS011;12678;51.336;12.406;2023-04-06T04:14:16;8.30;;;4.60;;
24517;SDS011;12678;51.336;12.406;2023-04-06T04:16:41;9.65;;;5.47;;
24517;SDS011;12678;51.336;12.406;2023-04-06T04:19:07;10.00;;;5.43;;
24517;SDS011;12678;51.336;12.406;2023-04-06T04:21:33;9.57;;;6.05;;
24517;SDS011;12678;51.336;12.406;2023-04-06T04:23:59;12.93;;;5.00;;
24517;SDS011;12678;51.336;12.406;2023-04-06T04:26:24;13.00;;;5.93;;
24517;SDS011;12678;51.336;12.406;2023-04-06T04:28:50;13.15;;;5.55;;
24517;SDS011;12678;51.336;12.406;2023-04-06T04:31:16;10.23;;;5.15;;
24517;SDS011;12678;51.336;12.406;2023-04-06T04:33:47;9.75;;;5.25;;
24517;SDS011;12678;51.336;12.406;2023-04-06T04:36:12;13.65;;;6.65;;
24517;SDS011;12678;51.336;12.406;2023-04-06T04:38:38;11.10;;;5.95;;
24517;SDS011;12678;51.336;12.406;2023-04-06T04:41:03;11.60;;;5.63;;
24517;SDS011;12678;51.336;12.406;2023-04-06T04:43:29;10.27;;;5.35;;
24517;SDS011;12678;51.336;12.406;2023-04-06T04:45:55;8.93;;;5.70;;
24517;SDS011;12678;51.336;12.406;2023-04-06T04:48:20;13.05;;;8.18;;
24517;SDS011;12678;51.336;12.406;2023-04-06T04:50:46;11.68;;;7.45;;
24517;SDS011;12678;51.336;12.406;2023-04-06T04:53:12;12.77;;;7.15;;
24517;SDS011;12678;51.336;12.406;2023-04-06T04:55:38;15.63;;;7.75;;
24517;SDS011;12678;51.336;12.406;2023-04-06T04:58:03;14.73;;;6.07;;
24517;SDS011;12678;51.336;12.406;2023-04-06T05:00:29;13.25;;;6.10;;
24517;SDS011;12678;51.336;12.406;2023-04-06T05:02:55;14.80;;;6.13;;
24517;SDS011;12678;51.336;12.406;2023-04-06T05:05:21;33.33;;;9.68;;
24517;SDS011;12678;51.336;12.406;2023-04-06T05:07:47;30.42;;;8.00;;
24517;SDS011;12678;51.336;12.406;2023-04-06T05:13:19;20.48;;;7.00;;
24517;SDS011;12678;51.336;12.406;2023-04-06T05:15:45;12.40;;;5.57;;
24517;SDS011;12678;51.336;12.406;2023-04-06T05:18:10;10.25;;;5.43;;
24517;SDS011;12678;51.336;12.406;2023-04-06T05:20:37;8.85;;;4.70;;
24517;SDS011;12678;51.336;12.406;2023-04-06T05:23:03;9.38;;;5.55;;
24517;SDS011;12678;51.336;12.406;2023-04-06T05:25:29;16.55;;;5.75;;
24517;SDS011;12678;51.336;12.406;2023-04-06T05:27:55;9.77;;;5.32;;
24517;SDS011;12678;51.336;12.406;2023-04-06T05:30:21;13.52;;;5.25;;
24517;SDS011;12678;51.336;12.406;2023-04-06T05:32:47;11.32;;;6.28;;
24517;SDS011;12678;51.336;12.406;2023-04-06T05:35:13;10.00;;;5.30;;
24517;SDS011;12678;51.336;12.406;2023-04-06T05:37:39;14.32;;;6.75;;
24517;SDS011;12678;51.336;12.406;2023-04-06T05:40:05;13.45;;;5.30;;
24517;SDS011;12678;51.336;12.406;2023-04-06T05:42:41;16.23;;;5.43;;
24517;SDS011;12678;51.336;12.406;2023-04-06T05:45:08;10.38;;;4.38;;
24517;SDS011;12678;51.336;12.406;2023-04-06T05:47:44;8.30;;;4.72;;
24517;SDS011;12678;51.336;12.406;2023-04-06T05:50:10;14.02;;;4.95;;
24517;SDS011;12678;51.336;12.406;2023-04-06T05:52:36;14.30;;;6.65;;
24517;SDS011;12678;51.336;12.406;2023-04-06T05:55:06;10.85;;;5.30;;
24517;SDS011;12678;51.336;12.406;2023-04-06T05:57:33;11.48;;;5.72;;
24517;SDS011;12678;51.336;12.406;2023-04-06T06:00:11;12.43;;;5.68;;
24517;SDS011;12678;51.336;12.406;2023-04-06T06:02:39;10.90;;;5.90;;
24517;SDS011;12678;51.336;12.406;2023-04-06T06:05:07;11.93;;;4.80;;
24517;SDS011;12678;51.336;12.406;2023-04-06T06:07:33;9.80;;;5.43;;
24517;SDS011;12678;51.336;12.406;2023-04-06T06:10:00;10.23;;;4.90;;
24517;SDS011;12678;51.336;12.406;2023-04-06T06:12:26;10.88;;;5.68;;
24517;SDS011;12678;51.336;12.406;2023-04-06T06:14:51;13.32;;;5.82;;
24517;SDS011;12678;51.336;12.406;2023-04-06T06:17:17;8.63;;;4.70;;
24517;SDS011;12678;51.336;12.406;2023-04-06T06:19:43;16.38;;;5.60;;
24517;SDS011;12678;51.336;12.406;2023-04-06T06:22:09;10.40;;;5.80;;
24517;SDS011;12678;51.336;12.406;2023-04-06T06:24:35;10.48;;;4.78;;
24517;SDS011;12678;51.336;12.406;2023-04-06T06:27:01;11.63;;;5.70;;
24517;SDS011;12678;51.336;12.406;2023-04-06T06:29:26;12.30;;;6.50;;
24517;SDS011;12678;51.336;12.406;2023-04-06T06:31:52;9.07;;;4.63;;
24517;SDS011;12678;51.336;12.406;2023-04-06T06:34:18;10.18;;;4.30;;
24517;SDS011;12678;51.336;12.406;2023-04-06T06:36:46;6.95;;;4.15;;
24517;SDS011;12678;51.336;12.406;2023-04-06T06:39:12;9.63;;;4.05;;
24517;SDS011;12678;51.336;12.406;2023-04-06T06:41:38;6.82;;;4.60;;
24517;SDS011;12678;51.336;12.406;2023-04-06T06:44:04;12.20;;;4.80;;
24517;SDS011;12678;51.336;12.406;2023-04-06T06:46:30;10.45;;;3.83;;
24517;SDS011;12678;51.336;12.406;2023-04-06T06:48:58;7.47;;;3.95;;
24517;SDS011;12678;51.336;12.406;2023-04-06T06:51:27;5.65;;;4.03;;
24517;SDS011;12678;51.336;12.406;2023-04-06T06:53:52;14.45;;;5.32;;
24517;SDS011;12678;51.336;12.406;2023-04-06T06:56:18;8.77;;;4.45;;
24517;SDS011;12678;51.336;12.406;2023-04-06T06:58:53;14.40;;;5.22;;
24517;SDS011;12678;51.336;12.406;2023-04-06T07:01:20;6.32;;;4.53;;
24517;SDS011;12678;51.336;12.406;2023-04-06T07:03:46;8.52;;;5.43;;
24517;SDS011;12678;51.336;12.406;2023-04-06T07:06:11;6.00;;;4.00;;
24517;SDS011;12678;51.336;12.406;2023-04-06T07:08:37;9.45;;;4.72;;
24517;SDS011;12678;51.336;12.406;2023-04-06T07:11:03;7.22;;;4.03;;
24517;SDS011;12678;51.336;12.406;2023-04-06T07:13:28;7.32;;;4.13;;
24517;SDS011;12678;51.336;12.406;2023-04-06T07:15:54;21.02;;;9.07;;
24517;SDS011;12678;51.336;12.406;2023-04-06T07:18:20;9.60;;;5.30;;
24517;SDS011;12678;51.336;12.406;2023-04-06T07:20:46;8.68;;;5.75;;
24517;SDS011;12678;51.336;12.406;2023-04-06T07:23:11;9.20;;;5.70;;
24517;SDS011;12678;51.336;12.406;2023-04-06T07:25:37;11.10;;;5.43;;
24517;SDS011;12678;51.336;12.406;2023-04-06T07:28:04;7.45;;;4.43;;
24517;SDS011;12678;51.336;12.406;2023-04-06T07:30:30;19.98;;;10.43;;
24517;SDS011;12678;51.336;12.406;2023-04-06T07:32:56;8.73;;;4.68;;
24517;SDS011;12678;51.336;12.406;2023-04-06T07:35:25;8.68;;;4.70;;
24517;SDS011;12678;51.336;12.406;2023-04-06T07:37:52;8.57;;;4.90;;
24517;SDS011;12678;51.336;12.406;2023-04-06T07:40:18;8.50;;;4.68;;
24517;SDS011;12678;51.336;12.406;2023-04-06T07:42:45;8.70;;;4.38;;
24517;SDS011;12678;51.336;12.406;2023-04-06T07:45:11;8.05;;;3.83;;
24517;SDS011;12678;51.336;12.406;2023-04-06T07:47:37;18.33;;;8.00;;
24517;SDS011;12678;51.336;12.406;2023-04-06T07:50:03;11.43;;;6.13;;
24517;SDS011;12678;51.336;12.406;2023-04-06T07:52:29;6.07;;;3.90;;
24517;SDS011;12678;51.336;12.406;2023-04-06T07:54:55;7.20;;;3.90;;
24517;SDS011;12678;51.336;12.406;2023-04-06T07:57:22;6.45;;;4.03;;
24517;SDS011;12678;51.336;12.406;2023-04-06T07:59:47;8.98;;;3.53;;
24517;SDS011;12678;51.336;12.406;2023-04-06T08:02:13;8.25;;;4.43;;
24517;SDS011;12678;51.336;12.406;2023-04-06T08:04:38;7.20;;;3.38;;
24517;SDS011;12678;51.336;12.406;2023-04-06T08:07:04;9.30;;;4.22;;
24517;SDS011;12678;51.336;12.406;2023-04-06T08:09:31;8.88;;;3.80;;
24517;SDS011;12678;51.336;12.406;2023-04-06T08:12:03;8.57;;;4.07;;
24517;SDS011;12678;51.336;12.406;2023-04-06T08:14:32;6.93;;;3.70;;
24517;SDS011;12678;51.336;12.406;2023-04-06T08:16:58;11.60;;;3.63;;
24517;SDS011;12678;51.336;12.406;2023-04-06T08:19:23;5.65;;;3.60;;
24517;SDS011;12678;51.336;12.406;2023-04-06T08:21:51;10.50;;;4.38;;
24517;SDS011;12678;51.336;12.406;2023-04-06T08:24:19;6.60;;;3.72;;
24517;SDS011;12678;51.336;12.406;2023-04-06T08:26:47;6.80;;;4.43;;
24517;SDS011;12678;51.336;12.406;2023-04-06T08:29:12;9.27;;;3.88;;
24517;SDS011;12678;51.336;12.406;2023-04-06T08:31:38;8.52;;;4.30;;
24517;SDS011;12678;51.336;12.406;2023-04-06T08:34:04;8.48;;;5.35;;
24517;SDS011;12678;51.336;12.406;2023-04-06T08:36:32;5.50;;;3.35;;
24517;SDS011;12678;51.336;12.406;2023-04-06T08:38:58;6.05;;;3.55;;
24517;SDS011;12678;51.336;12.406;2023-04-06T08:41:25;7.30;;;4.57;;
24517;SDS011;12678;51.336;12.406;2023-04-06T08:44:00;7.60;;;4.15;;
24517;SDS011;12678;51.336;12.406;2023-04-06T08:46:28;7.30;;;4.13;;
24517;SDS011;12678;51.336;12.406;2023-04-06T08:48:57;6.95;;;3.88;;
24517;SDS011;12678;51.336;12.406;2023-04-06T08:51:25;7.72;;;4.00;;
24517;SDS011;12678;51.336;12.406;2023-04-06T08:53:52;8.10;;;4.07;;
24517;SDS011;12678;51.336;12.406;2023-04-06T08:56:25;6.68;;;3.78;;
24517;SDS011;12678;51.336;12.406;2023-04-06T08:58:53;7.43;;;4.35;;
24517;SDS011;12678;51.336;12.406;2023-04-06T09:01:23;9.38;;;4.35;;
24517;SDS011;12678;51.336;12.406;2023-04-06T09:03:51;9.88;;;4.03;;
24517;SDS011;12678;51.336;12.406;2023-04-06T09:06:24;8.90;;;4.07;;
24517;SDS011;12678;51.336;12.406;2023-04-06T09:08:51;11.98;;;4.50;;
24517;SDS011;12678;51.336;12.406;2023-04-06T09:11:17;7.82;;;4.30;;
24517;SDS011;12678;51.336;12.406;2023-04-06T09:16:16;9.15;;;5.15;;
24517;SDS011;12678;51.336;12.406;2023-04-06T09:18:43;10.43;;;5.15;;
24517;SDS011;12678;51.336;12.406;2023-04-06T09:21:10;10.25;;;4.07;;
24517;SDS011;12678;51.336;12.406;2023-04-06T09:23:37;7.95;;;3.78;;
24517;SDS011;12678;51.336;12.406;2023-04-06T09:26:12;8.07;;;3.90;;
24517;SDS011;12678;51.336;12.406;2023-04-06T09:28:46;7.35;;;4.60;;
24517;SDS011;12678;51.336;12.406;2023-04-06T09:31:17;10.60;;;4.43;;
24517;SDS011;12678;51.336;12.406;2023-04-06T09:33:50;12.77;;;4.43;;
24517;SDS011;12678;51.336;12.406;2023-04-06T09:36:18;8.73;;;4.72;;
24517;SDS011;12678;51.336;12.406;2023-04-06T09:38:51;12.35;;;4.80;;
24517;SDS011;12678;51.336;12.406;2023-04-06T09:41:25;11.27;;;4.78;;
24517;SDS011;12678;51.336;12.406;2023-04-06T09:44:01;11.70;;;4.32;;
24517;SDS011;12678;51.336;12.406;2023-04-06T09:49:06;16.30;;;5.88;;
24517;SDS011;12678;51.336;12.406;2023-04-06T09:51:37;8.15;;;4.10;;
24517;SDS011;12678;51.336;12.406;2023-04-06T09:54:09;13.88;;;5.03;;
24517;SDS011;12678;51.336;12.406;2023-04-06T09:59:16;6.97;;;3.75;;
24517;SDS011;12678;51.336;12.406;2023-04-06T10:01:50;9.25;;;3.90;;
24517;SDS011;12678;51.336;12.406;2023-04-06T10:04:37;7.05;;;3.47;;
24517;SDS011;12678;51.336;12.406;2023-04-06T10:07:08;6.68;;;3.60;;
24517;SDS011;12678;51.336;12.406;2023-04-06T10:09:37;6.28;;;4.35;;
24517;SDS011;12678;51.336;12.406;2023-04-06T10:12:03;11.82;;;4.10;;
24517;SDS011;12678;51.336;12.406;2023-04-06T10:14:33;7.95;;;3.88;;
24517;SDS011;12678;51.336;12.406;2023-04-06T10:17:05;9.55;;;3.35;;
24517;SDS011;12678;51.336;12.406;2023-04-06T10:19:36;9.55;;;3.85;;
24517;SDS011;12678;51.336;12.406;2023-04-06T10:22:08;7.68;;;4.18;;
24517;SDS011;12678;51.336;12.406;2023-04-06T10:24:37;5.95;;;3.97;;
24517;SDS011;12678;51.336;12.406;2023-04-06T10:27:03;14.27;;;6.68;;
24517;SDS011;12678;51.336;12.406;2023-04-06T10:29:44;30.75;;;10.82;;
24517;SDS011;12678;51.336;12.406;2023-04-06T10:32:11;13.50;;;4.50;;
24517;SDS011;12678;51.336;12.406;2023-04-06T10:34:37;11.80;;;4.10;;
24517;SDS011;12678;51.336;12.406;2023-04-06T10:37:15;7.07;;;4.65;;
24517;SDS011;12678;51.336;12.406;2023-04-06T10:39:53;12.07;;;4.70;;
24517;SDS011;12678;51.336;12.406;2023-04-06T10:42:24;4.43;;;3.50;;
24517;SDS011;12678;51.336;12.406;2023-04-06T10:45:01;10.23;;;4.78;;
24517;SDS011;12678;51.336;12.406;2023-04-06T10:47:29;8.75;;;3.97;;
24517;SDS011;12678;51.336;12.406;2023-04-06T10:50:04;16.90;;;6.63;;
24517;SDS011;12678;51.336;12.406;2023-04-06T10:52:30;18.65;;;6.43;;
24517;SDS011;12678;51.336;12.406;2023-04-06T10:54:56;7.07;;;4.63;;
24517;SDS011;12678;51.336;12.406;2023-04-06T10:57:32;12.48;;;3.55;;
24517;SDS011;12678;51.336;12.406;2023-04-06T10:59:58;9.80;;;4.00;;
24517;SDS011;12678;51.336;12.406;2023-04-06T11:02:23;8.00;;;4.25;;
24517;SDS011;12678;51.336;12.406;2023-04-06T11:04:55;6.80;;;2.72;;
24517;SDS011;12678;51.336;12.406;2023-04-06T11:09:49;7.75;;;3.70;;
24517;SDS011;12678;51.336;12.406;2023-04-06T11:12:25;10.05;;;4.38;;
24517;SDS011;12678;51.336;12.406;2023-04-06T11:14:52;9.02;;;5.13;;
24517;SDS011;12678;51.336;12.406;2023-04-06T11:17:29;8.68;;;4.93;;
24517;SDS011;12678;51.336;12.406;2023-04-06T11:19:57;5.88;;;3.80;;
24517;SDS011;12678;51.336;12.406;2023-04-06T11:22:24;6.47;;;3.72;;
24517;SDS011;12678;51.336;12.406;2023-04-06T11:24:50;13.05;;;4.78;;
24517;SDS011;12678;51.336;12.406;2023-04-06T11:27:17;8.32;;;3.42;;
24517;SDS011;12678;51.336;12.406;2023-04-06T11:29:43;5.57;;;3.90;;
24517;SDS011;12678;51.336;12.406;2023-04-06T11:32:11;8.18;;;4.20;;
24517;SDS011;12678;51.336;12.406;2023-04-06T11:34:44;4.85;;;3.00;;
24517;SDS011;12678;51.336;12.406;2023-04-06T11:37:12;7.18;;;3.78;;
24517;SDS011;12678;51.336;12.406;2023-04-06T11:39:39;7.15;;;3.90;;
24517;SDS011;12678;51.336;12.406;2023-04-06T11:42:25;5.68;;;3.30;;
24517;SDS011;12678;51.336;12.406;2023-04-06T11:44:57;4.82;;;3.70;;
24517;SDS011;12678;51.336;12.406;2023-04-06T11:47:30;9.85;;;3.72;;
24517;SDS011;12678;51.336;12.406;2023-04-06T11:50:09;7.60;;;3.63;;
24517;SDS011;12678;51.336;12.406;2023-04-06T11:52:40;5.28;;;3.17;;
24517;SDS011;12678;51.336;12.406;2023-04-06T11:55:13;7.80;;;3.30;;
24517;SDS011;12678;51.336;12.406;2023-04-06T11:57:40;4.90;;;3.15;;
24517;SDS011;12678;51.336;12.406;2023-04-06T12:00:09;5.85;;;3.03;;
24517;SDS011;12678;51.336;12.406;2023-04-06T12:02:36;6.57;;;3.30;;
24517;SDS011;12678;51.336;12.406;2023-04-06T12:05:03;5.25;;;3.33;;
24517;SDS011;12678;51.336;12.406;2023-04-06T12:07:33;11.38;;;4.13;;
24517;SDS011;12678;51.336;12.406;2023-04-06T12:10:02;10.73;;;3.50;;
24517;SDS011;12678;51.336;12.406;2023-04-06T12:12:29;6.82;;;3.95;;
24517;SDS011;12678;51.336;12.406;2023-04-06T12:14:55;7.70;;;3.80;;
24517;SDS011;12678;51.336;12.406;2023-04-06T12:17:21;10.23;;;5.22;;
24517;SDS011;12678;51.336;12.406;2023-04-06T12:19:47;5.55;;;3.60;;
24517;SDS011;12678;51.336;12.406;2023-04-06T12:22:12;12.52;;;3.53;;
24517;SDS011;12678;51.336;12.406;2023-04-06T12:24:38;6.07;;;3.15;;
24517;SDS011;12678;51.336;12.406;2023-04-06T12:27:04;7.63;;;3.65;;
24517;SDS011;12678;51.336;12.406;2023-04-06T12:29:30;10.25;;;3.22;;
24517;SDS011;12678;51.336;12.406;2023-04-06T12:31:55;3.90;;;2.88;;
24517;SDS011;12678;51.336;12.406;2023-04-06T12:34:21;5.80;;;3.35;;
24517;SDS011;12678;51.336;12.406;2023-04-06T12:36:46;4.90;;;3.22;;
24517;SDS011;12678;51.336;12.406;2023-04-06T12:39:12;4.55;;;3.20;;
24517;SDS011;12678;51.336;12.406;2023-04-06T12:41:37;4.70;;;2.88;;
24517;SDS011;12678;51.336;12.406;2023-04-06T12:44:06;4.85;;;3.15;;
24517;SDS011;12678;51.336;12.406;2023-04-06T12:46:31;4.78;;;3.13;;
24517;SDS011;12678;51.336;12.406;2023-04-06T12:48:57;5.82;;;3.65;;
24517;SDS011;12678;51.336;12.406;2023-04-06T12:51:24;4.30;;;2.97;;
24517;SDS011;12678;51.336;12.406;2023-04-06T12:53:52;5.43;;;3.38;;
24517;SDS011;12678;51.336;12.406;2023-04-06T12:56:18;8.68;;;4.05;;
24517;SDS011;12678;51.336;12.406;2023-04-06T12:58:46;5.07;;;3.05;;
24517;SDS011;12678;51.336;12.406;2023-04-06T13:01:12;4.95;;;3.53;;
24517;SDS011;12678;51.336;12.406;2023-04-06T13:03:41;7.50;;;3.80;;
24517;SDS011;12678;51.336;12.406;2023-04-06T13:06:07;5.55;;;3.58;;
24517;SDS011;12678;51.336;12.406;2023-04-06T13:08:36;11.10;;;4.35;;
24517;SDS011;12678;51.336;12.406;2023-04-06T13:11:03;9.95;;;3.75;;
24517;SDS011;12678;51.336;12.406;2023-04-06T13:13:29;7.30;;;3.53;;
24517;SDS011;12678;51.336;12.406;2023-04-06T13:15:59;4.95;;;3.42;;
24517;SDS011;12678;51.336;12.406;2023-04-06T13:18:28;7.43;;;3.28;;
24517;SDS011;12678;51.336;12.406;2023-04-06T13:20:55;8.90;;;3.45;;
24517;SDS011;12678;51.336;12.406;2023-04-06T13:23:21;5.65;;;3.38;;
24517;SDS011;12678;51.336;12.406;2023-04-06T13:25:48;6.90;;;4.20;;
24517;SDS011;12678;51.336;12.406;2023-04-06T13:28:21;4.80;;;3.42;;
24517;SDS011;12678;51.336;12.406;2023-04-06T13:30:48;8.32;;;3.78;;
24517;SDS011;12678;51.336;12.406;2023-04-06T13:33:13;11.63;;;3.70;;
24517;SDS011;12678;51.336;12.406;2023-04-06T13:35:39;5.20;;;3.45;;
24517;SDS011;12678;51.336;12.406;2023-04-06T13:38:05;3.78;;;2.55;;
24517;SDS011;12678;51.336;12.406;2023-04-06T13:40:30;5.10;;;3.58;;
24517;SDS011;12678;51.336;12.406;2023-04-06T13:42:56;6.97;;;4.10;;
24517;SDS011;12678;51.336;12.406;2023-04-06T13:45:22;11.07;;;5.30;;
24517;SDS011;12678;51.336;12.406;2023-04-06T13:47:47;7.80;;;3.50;;
24517;SDS011;12678;51.336;12.406;2023-04-06T13:50:13;7.80;;;3.45;;
24517;SDS011;12678;51.336;12.406;2023-04-06T13:52:38;6.75;;;3.60;;
24517;SDS011;12678;51.336;12.406;2023-04-06T13:55:04;6.22;;;3.42;;
24517;SDS011;12678;51.336;12.406;2023-04-06T13:57:30;8.02;;;3.72;;
24517;SDS011;12678;51.336;12.406;2023-04-06T13:59:55;7.40;;;3.40;;
24517;SDS011;12678;51.336;12.406;2023-04-06T14:02:21;5.38;;;3.50;;
24517;SDS011;12678;51.336;12.406;2023-04-06T14:04:51;7.60;;;3.25;;
24517;SDS011;12678;51.336;12.406;2023-04-06T14:07:18;6.22;;;3.92;;
24517;SDS011;12678;51.336;12.406;2023-04-06T14:09:44;5.32;;;3.47;;
24517;SDS011;12678;51.336;12.406;2023-04-06T14:12:10;5.78;;;3.42;;
24517;SDS011;12678;51.336;12.406;2023-04-06T14:14:36;5.03;;;3.33;;
24517;SDS011;12678;51.336;12.406;2023-04-06T14:17:02;7.18;;;3.63;;
24517;SDS011;12678;51.336;12.406;2023-04-06T14:19:27;6.40;;;3.55;;
24517;SDS011;12678;51.336;12.406;2023-04-06T14:21:53;4.82;;;3.67;;
24517;SDS011;12678;51.336;12.406;2023-04-06T14:24:19;4.70;;;3.15;;
24517;SDS011;12678;51.336;12.406;2023-04-06T14:26:45;6.20;;;3.70;;
24517;SDS011;12678;51.336;12.406;2023-04-06T14:29:11;8.65;;;4.43;;
24517;SDS011;12678;51.336;12.406;2023-04-06T14:31:37;7.68;;;3.25;;
24517;SDS011;12678;51.336;12.406;2023-04-06T14:34:03;4.72;;;2.75;;
24517;SDS011;12678;51.336;12.406;2023-04-06T14:36:30;8.98;;;3.35;;
24517;SDS011;12678;51.336;12.406;2023-04-06T14:39:01;6.82;;;3.40;;
24517;SDS011;12678;51.336;12.406;2023-04-06T14:41:30;5.20;;;3.53;;
24517;SDS011;12678;51.336;12.406;2023-04-06T14:43:57;6.65;;;3.45;;